Overview Statistics Trail Chart Weather Telemetry Raw packets
 

This is the latest recevied weather packets stored in our database for station/object IW1QNQ-13. If no packets are shown the sender has not sent any weather packets the latest 10 day(s).

<< 1 2 3 4 >>
Time Temp. Humidity Pressure Rain* Wind** Luminosity Snow
1787927087 31.11° C 57% 1019.4 hPa - - - -
1787925886 33.33° C 56% 1019.6 hPa - - - -
1787924699 32.22° C 55% 1019.7 hPa - - - -
1787923499 31.67° C 56% 1019.8 hPa - - - -
1787922298 31.67° C 57% 1019.8 hPa - - - -
1787921097 32.22° C 58% 1020 hPa - - - -
1787918695 32.22° C 59% 1020.1 hPa - - - -
1787917494 32.22° C 60% 1019.8 hPa - - - -
1787916294 31.67° C 62% 1020.2 hPa - - - -
1787915093 31.11° C 62% 1020.1 hPa - - - -
1787913892 29.44° C 68% 1020.3 hPa - - - -
1787912691 28.33° C 73% 1020.5 hPa - - - -
1787911490 28.89° C 71% 1021.2 hPa - - - -
1787910290 28.89° C 73% 1021.5 hPa - - - -
1787909089 28.89° C 73% 1021.7 hPa - - - -
1787907888 30° C 68% 1021.6 hPa - - - -
1787906687 35.56° C 52% 1021.3 hPa - - - -
1787905486 32.78° C 60% 1021.6 hPa - - - -
1787904285 36.11° C 56% 1021.1 hPa - - - -
1787903099 35° C 54% 1020.6 hPa - - - -
1787900697 36.11° C 51% 1020.6 hPa - - - -
1787899496 34.44° C 56% 1020.6 hPa - - - -
1787898295 30° C 69% 1020.7 hPa - - - -
1787897095 29.44° C 70% 1021.5 hPa - - - -
1787895895 28.33° C 75% 1021.4 hPa - - - -

* Rain since midnight (hover to see other rain measurements)
** Current wind speed in m/s (hover to see current wind gust speed)